sensor_id;sensor_type;location;lat;lon;timestamp;pressure;altitude;pressure_sealevel;temperature;humidity
66762;BME280;53672;48.176;16.338;2023-09-19T00:01:57;98718.25;;;19.50;63.14
66762;BME280;53672;48.176;16.338;2023-09-19T00:06:58;98711.97;;;19.32;65.01
66762;BME280;53672;48.176;16.338;2023-09-19T00:11:59;98729.19;;;18.86;68.11
66762;BME280;53672;48.176;16.338;2023-09-19T00:17:00;98738.34;;;18.65;69.97
66762;BME280;53672;48.176;16.338;2023-09-19T00:22:01;98743.88;;;18.43;72.04
66762;BME280;53672;48.176;16.338;2023-09-19T00:27:03;98742.25;;;18.31;73.56
66762;BME280;53672;48.176;16.338;2023-09-19T00:32:04;98740.59;;;18.13;74.03
66762;BME280;53672;48.176;16.338;2023-09-19T00:37:05;98748.66;;;17.98;75.39
66762;BME280;53672;48.176;16.338;2023-09-19T00:42:06;98755.91;;;17.82;75.86
66762;BME280;53672;48.176;16.338;2023-09-19T00:47:07;98757.56;;;17.67;76.31
66762;BME280;53672;48.176;16.338;2023-09-19T00:52:08;98765.69;;;17.57;75.95
66762;BME280;53672;48.176;16.338;2023-09-19T00:57:10;98775.72;;;17.58;75.54
66762;BME280;53672;48.176;16.338;2023-09-19T01:02:10;98773.22;;;17.56;76.14
66762;BME280;53672;48.176;16.338;2023-09-19T01:07:11;98769.81;;;17.54;76.16
66762;BME280;53672;48.176;16.338;2023-09-19T01:12:16;98776.63;;;17.47;75.84
66762;BME280;53672;48.176;16.338;2023-09-19T01:17:27;98771.78;;;17.42;75.07
66762;BME280;53672;48.176;16.338;2023-09-19T01:22:36;98774.47;;;17.37;74.92
66762;BME280;53672;48.176;16.338;2023-09-19T01:27:57;98772.28;;;17.39;75.54
66762;BME280;53672;48.176;16.338;2023-09-19T01:33:08;98777.50;;;17.36;76.49
66762;BME280;53672;48.176;16.338;2023-09-19T01:38:08;98766.78;;;17.27;77.51
66762;BME280;53672;48.176;16.338;2023-09-19T01:43:12;98758.59;;;17.21;77.04
66762;BME280;53672;48.176;16.338;2023-09-19T01:48:21;98765.03;;;17.10;78.25
66762;BME280;53672;48.176;16.338;2023-09-19T01:53:30;98764.72;;;16.95;78.66
66762;BME280;53672;48.176;16.338;2023-09-19T01:58:37;98774.78;;;16.73;80.80
66762;BME280;53672;48.176;16.338;2023-09-19T02:03:41;98769.09;;;16.68;81.44
66762;BME280;53672;48.176;16.338;2023-09-19T02:08:44;98766.72;;;16.59;83.10
66762;BME280;53672;48.176;16.338;2023-09-19T02:13:45;98749.13;;;16.54;82.48
66762;BME280;53672;48.176;16.338;2023-09-19T02:18:47;98757.44;;;16.54;82.99
66762;BME280;53672;48.176;16.338;2023-09-19T02:23:48;98742.63;;;16.48;83.19
66762;BME280;53672;48.176;16.338;2023-09-19T02:28:48;98759.84;;;16.50;83.53
66762;BME280;53672;48.176;16.338;2023-09-19T02:33:50;98760.91;;;16.49;83.63
66762;BME280;53672;48.176;16.338;2023-09-19T02:38:50;98771.53;;;16.52;84.11
66762;BME280;53672;48.176;16.338;2023-09-19T02:43:51;98772.84;;;16.50;84.56
66762;BME280;53672;48.176;16.338;2023-09-19T02:48:53;98779.38;;;16.55;84.31
66762;BME280;53672;48.176;16.338;2023-09-19T02:53:53;98780.19;;;16.56;83.46
66762;BME280;53672;48.176;16.338;2023-09-19T02:58:54;98785.88;;;16.61;83.99
66762;BME280;53672;48.176;16.338;2023-09-19T03:03:56;98780.69;;;16.65;82.80
66762;BME280;53672;48.176;16.338;2023-09-19T03:08:56;98785.38;;;16.64;82.48
66762;BME280;53672;48.176;16.338;2023-09-19T03:13:56;98786.84;;;16.67;81.91
66762;BME280;53672;48.176;16.338;2023-09-19T03:18:58;98779.72;;;16.71;82.45
66762;BME280;53672;48.176;16.338;2023-09-19T03:23:59;98790.53;;;16.72;82.24
66762;BME280;53672;48.176;16.338;2023-09-19T03:28:59;98793.19;;;16.79;81.40
66762;BME280;53672;48.176;16.338;2023-09-19T03:34:01;98794.53;;;16.76;81.25
66762;BME280;53672;48.176;16.338;2023-09-19T03:39:02;98791.03;;;16.81;81.65
66762;BME280;53672;48.176;16.338;2023-09-19T03:44:03;98797.53;;;16.86;81.11
66762;BME280;53672;48.176;16.338;2023-09-19T03:49:05;98797.25;;;16.88;80.73
66762;BME280;53672;48.176;16.338;2023-09-19T03:54:05;98790.66;;;16.89;80.40
66762;BME280;53672;48.176;16.338;2023-09-19T03:59:06;98790.16;;;16.92;80.13
66762;BME280;53672;48.176;16.338;2023-09-19T04:04:08;98799.81;;;16.89;80.38
66762;BME280;53672;48.176;16.338;2023-09-19T04:09:08;98799.41;;;16.97;80.08
66762;BME280;53672;48.176;16.338;2023-09-19T04:14:09;98808.25;;;16.94;80.36
66762;BME280;53672;48.176;16.338;2023-09-19T04:19:10;98808.72;;;16.91;80.49
66762;BME280;53672;48.176;16.338;2023-09-19T04:24:11;98824.03;;;16.94;80.38
66762;BME280;53672;48.176;16.338;2023-09-19T04:29:11;98838.25;;;16.97;80.34
66762;BME280;53672;48.176;16.338;2023-09-19T04:34:13;98845.84;;;16.90;79.84
66762;BME280;53672;48.176;16.338;2023-09-19T04:39:14;98860.09;;;16.94;79.71
66762;BME280;53672;48.176;16.338;2023-09-19T04:44:14;98864.19;;;16.91;78.86
66762;BME280;53672;48.176;16.338;2023-09-19T04:49:16;98867.44;;;16.88;78.64
66762;BME280;53672;48.176;16.338;2023-09-19T04:54:17;98873.56;;;16.90;78.30
66762;BME280;53672;48.176;16.338;2023-09-19T04:59:17;98878.28;;;16.90;77.73
66762;BME280;53672;48.176;16.338;2023-09-19T05:04:19;98889.38;;;16.90;78.02
66762;BME280;53672;48.176;16.338;2023-09-19T05:09:19;98898.06;;;16.82;78.99
66762;BME280;53672;48.176;16.338;2023-09-19T05:14:20;98896.25;;;16.76;79.66
66762;BME280;53672;48.176;16.338;2023-09-19T05:19:22;98900.34;;;16.73;81.11
66762;BME280;53672;48.176;16.338;2023-09-19T05:24:22;98892.75;;;16.69;81.60
66762;BME280;53672;48.176;16.338;2023-09-19T05:29:23;98900.94;;;16.63;82.31
66762;BME280;53672;48.176;16.338;2023-09-19T05:34:24;98898.53;;;16.55;83.15
66762;BME280;53672;48.176;16.338;2023-09-19T05:39:25;98893.91;;;16.49;83.30
66762;BME280;53672;48.176;16.338;2023-09-19T05:44:25;98903.06;;;16.50;83.46
66762;BME280;53672;48.176;16.338;2023-09-19T05:49:27;98899.44;;;16.49;83.49
66762;BME280;53672;48.176;16.338;2023-09-19T05:54:28;98902.03;;;16.51;83.69
66762;BME280;53672;48.176;16.338;2023-09-19T05:59:28;98901.53;;;16.54;83.86
66762;BME280;53672;48.176;16.338;2023-09-19T06:04:30;98894.66;;;16.56;83.10
66762;BME280;53672;48.176;16.338;2023-09-19T06:09:30;98901.91;;;16.57;82.17
66762;BME280;53672;48.176;16.338;2023-09-19T06:14:31;98908.19;;;16.65;81.87
66762;BME280;53672;48.176;16.338;2023-09-19T06:19:33;98912.75;;;16.71;81.07
66762;BME280;53672;48.176;16.338;2023-09-19T06:24:33;98922.41;;;16.80;81.01
66762;BME280;53672;48.176;16.338;2023-09-19T06:29:34;98927.56;;;16.99;79.74
66762;BME280;53672;48.176;16.338;2023-09-19T06:34:35;98940.97;;;17.14;79.75
66762;BME280;53672;48.176;16.338;2023-09-19T06:39:36;98937.19;;;17.31;79.25
66762;BME280;53672;48.176;16.338;2023-09-19T06:44:36;98951.69;;;17.45;79.53
66762;BME280;53672;48.176;16.338;2023-09-19T06:49:38;98953.00;;;17.54;78.00
66762;BME280;53672;48.176;16.338;2023-09-19T06:54:39;98966.38;;;17.69;76.81
66762;BME280;53672;48.176;16.338;2023-09-19T06:59:39;98954.63;;;17.78;76.32
66762;BME280;53672;48.176;16.338;2023-09-19T07:04:41;98971.63;;;17.82;75.63
66762;BME280;53672;48.176;16.338;2023-09-19T07:09:41;98967.28;;;17.86;75.67
66762;BME280;53672;48.176;16.338;2023-09-19T07:14:42;98970.66;;;17.88;75.80
66762;BME280;53672;48.176;16.338;2023-09-19T07:19:44;98983.97;;;17.86;74.68
66762;BME280;53672;48.176;16.338;2023-09-19T07:24:44;98989.84;;;17.89;74.85
66762;BME280;53672;48.176;16.338;2023-09-19T07:29:45;99007.81;;;17.98;74.34
66762;BME280;53672;48.176;16.338;2023-09-19T07:34:47;99010.09;;;18.01;74.58
66762;BME280;53672;48.176;16.338;2023-09-19T07:39:48;99013.81;;;18.07;73.68
66762;BME280;53672;48.176;16.338;2023-09-19T07:44:48;99024.06;;;18.18;72.85
66762;BME280;53672;48.176;16.338;2023-09-19T07:49:50;99017.84;;;18.39;72.16
66762;BME280;53672;48.176;16.338;2023-09-19T07:54:50;99022.63;;;18.72;70.25
66762;BME280;53672;48.176;16.338;2023-09-19T07:59:51;99027.88;;;19.02;70.07
66762;BME280;53672;48.176;16.338;2023-09-19T08:04:53;99039.56;;;19.32;69.27
66762;BME280;53672;48.176;16.338;2023-09-19T08:09:53;99044.75;;;19.62;67.10
66762;BME280;53672;48.176;16.338;2023-09-19T08:14:54;99049.44;;;19.78;66.00
66762;BME280;53672;48.176;16.338;2023-09-19T08:19:55;99048.97;;;19.86;64.73
66762;BME280;53672;48.176;16.338;2023-09-19T08:24:56;99061.38;;;19.95;64.71
66762;BME280;53672;48.176;16.338;2023-09-19T08:29:56;99076.22;;;20.00;63.81
66762;BME280;53672;48.176;16.338;2023-09-19T08:34:58;99077.22;;;20.11;64.00
66762;BME280;53672;48.176;16.338;2023-09-19T08:39:59;99082.22;;;20.09;64.35
66762;BME280;53672;48.176;16.338;2023-09-19T08:44:59;99080.88;;;19.95;63.31
66762;BME280;53672;48.176;16.338;2023-09-19T08:50:08;99085.19;;;19.86;63.88
66762;BME280;53672;48.176;16.338;2023-09-19T08:55:12;99088.41;;;19.94;63.57
66762;BME280;53672;48.176;16.338;2023-09-19T09:00:14;99091.25;;;20.16;62.35
66762;BME280;53672;48.176;16.338;2023-09-19T09:05:17;99094.56;;;20.35;61.79
66762;BME280;53672;48.176;16.338;2023-09-19T09:10:19;99094.09;;;20.21;62.36
66762;BME280;53672;48.176;16.338;2023-09-19T09:15:19;99099.72;;;20.04;62.44
66762;BME280;53672;48.176;16.338;2023-09-19T09:20:22;99097.09;;;19.98;62.82
66762;BME280;53672;48.176;16.338;2023-09-19T09:25:23;99104.09;;;20.00;62.32
66762;BME280;53672;48.176;16.338;2023-09-19T09:30:43;99106.06;;;20.38;61.35
66762;BME280;53672;48.176;16.338;2023-09-19T09:35:49;99097.88;;;21.02;59.69
66762;BME280;53672;48.176;16.338;2023-09-19T09:40:51;99111.00;;;22.01;56.33
66762;BME280;53672;48.176;16.338;2023-09-19T09:46:06;99102.19;;;22.76;54.26
66762;BME280;53672;48.176;16.338;2023-09-19T09:51:08;99105.63;;;25.81;44.84
66762;BME280;53672;48.176;16.338;2023-09-19T09:56:09;99099.56;;;26.92;41.84
66762;BME280;53672;48.176;16.338;2023-09-19T10:01:09;99111.69;;;26.93;41.21
66762;BME280;53672;48.176;16.338;2023-09-19T10:06:12;99114.56;;;26.88;40.68
66762;BME280;53672;48.176;16.338;2023-09-19T10:11:15;99112.81;;;27.34;40.30
66762;BME280;53672;48.176;16.338;2023-09-19T10:16:16;99111.47;;;28.15;39.00
66762;BME280;53672;48.176;16.338;2023-09-19T10:21:19;99106.16;;;29.58;35.51
66762;BME280;53672;48.176;16.338;2023-09-19T10:26:20;99105.25;;;31.25;31.62
66762;BME280;53672;48.176;16.338;2023-09-19T10:31:21;99093.38;;;33.92;28.12
66762;BME280;53672;48.176;16.338;2023-09-19T10:36:24;99091.78;;;35.57;25.35
66762;BME280;53672;48.176;16.338;2023-09-19T10:41:25;99091.19;;;36.62;25.37
66762;BME280;53672;48.176;16.338;2023-09-19T10:46:27;99096.50;;;37.96;22.21
66762;BME280;53672;48.176;16.338;2023-09-19T10:51:31;99084.88;;;37.89;25.70
66762;BME280;53672;48.176;16.338;2023-09-19T10:56:43;99090.22;;;37.71;24.32
66762;BME280;53672;48.176;16.338;2023-09-19T11:01:45;99089.94;;;40.46;18.29
66762;BME280;53672;48.176;16.338;2023-09-19T11:06:59;99074.50;;;38.41;20.96
66762;BME280;53672;48.176;16.338;2023-09-19T11:12:00;99077.84;;;38.05;24.37
66762;BME280;53672;48.176;16.338;2023-09-19T11:28:32;99073.22;;;33.15;26.46
66762;BME280;53672;48.176;16.338;2023-09-19T11:33:32;99075.66;;;33.45;26.42
66762;BME280;53672;48.176;16.338;2023-09-19T11:38:58;99064.53;;;35.59;23.58
66762;BME280;53672;48.176;16.338;2023-09-19T11:49:33;99058.69;;;36.55;22.96
66762;BME280;53672;48.176;16.338;2023-09-19T11:54:35;99052.22;;;38.35;19.94
66762;BME280;53672;48.176;16.338;2023-09-19T11:59:38;99057.50;;;37.37;21.90
66762;BME280;53672;48.176;16.338;2023-09-19T12:04:41;99044.31;;;38.09;19.82
66762;BME280;53672;48.176;16.338;2023-09-19T12:09:43;99049.56;;;36.49;22.57
66762;BME280;53672;48.176;16.338;2023-09-19T12:14:47;99045.56;;;34.79;26.14
66762;BME280;53672;48.176;16.338;2023-09-19T12:19:53;99051.94;;;34.27;24.47
66762;BME280;53672;48.176;16.338;2023-09-19T12:25:05;99058.66;;;31.86;29.80
66762;BME280;53672;48.176;16.338;2023-09-19T12:30:07;99056.63;;;31.95;29.04
66762;BME280;53672;48.176;16.338;2023-09-19T12:35:09;99053.16;;;31.21;28.44
66762;BME280;53672;48.176;16.338;2023-09-19T12:40:10;99054.91;;;29.82;30.63
66762;BME280;53672;48.176;16.338;2023-09-19T12:45:11;99061.53;;;29.33;32.74
66762;BME280;53672;48.176;16.338;2023-09-19T12:50:14;99065.19;;;29.20;32.18
66762;BME280;53672;48.176;16.338;2023-09-19T12:55:22;99076.78;;;28.96;31.95
66762;BME280;53672;48.176;16.338;2023-09-19T13:00:34;99082.13;;;28.97;31.75
66762;BME280;53672;48.176;16.338;2023-09-19T13:05:53;99090.72;;;28.65;32.77
66762;BME280;53672;48.176;16.338;2023-09-19T13:11:03;99076.47;;;28.43;34.27
66762;BME280;53672;48.176;16.338;2023-09-19T13:16:04;99067.19;;;28.56;31.51
66762;BME280;53672;48.176;16.338;2023-09-19T13:21:07;99074.38;;;28.35;31.93
66762;BME280;53672;48.176;16.338;2023-09-19T13:26:08;99069.97;;;28.15;32.42
66762;BME280;53672;48.176;16.338;2023-09-19T13:31:09;99061.44;;;28.02;31.94
66762;BME280;53672;48.176;16.338;2023-09-19T13:36:11;99070.13;;;27.59;32.56
66762;BME280;53672;48.176;16.338;2023-09-19T13:41:12;99069.16;;;27.32;33.44
66762;BME280;53672;48.176;16.338;2023-09-19T13:46:13;99072.22;;;27.17;34.28
66762;BME280;53672;48.176;16.338;2023-09-19T13:51:15;99064.03;;;27.15;36.37
66762;BME280;53672;48.176;16.338;2023-09-19T13:56:15;99070.66;;;27.06;34.33
66762;BME280;53672;48.176;16.338;2023-09-19T14:01:15;99061.63;;;26.66;35.32
66762;BME280;53672;48.176;16.338;2023-09-19T14:06:17;99058.19;;;26.69;36.07
66762;BME280;53672;48.176;16.338;2023-09-19T14:11:18;99061.56;;;26.90;35.71
66762;BME280;53672;48.176;16.338;2023-09-19T14:16:18;99066.91;;;26.73;35.23
66762;BME280;53672;48.176;16.338;2023-09-19T14:21:20;99058.16;;;26.51;35.06
66762;BME280;53672;48.176;16.338;2023-09-19T14:26:21;99050.00;;;26.25;35.99
66762;BME280;53672;48.176;16.338;2023-09-19T14:31:21;99067.28;;;25.90;36.58
66762;BME280;53672;48.176;16.338;2023-09-19T14:36:23;99056.28;;;25.60;37.71
66762;BME280;53672;48.176;16.338;2023-09-19T14:41:23;99067.22;;;25.33;38.47
66762;BME280;53672;48.176;16.338;2023-09-19T14:46:24;99077.25;;;25.00;39.25
66762;BME280;53672;48.176;16.338;2023-09-19T14:51:29;99074.84;;;24.78;40.22
66762;BME280;53672;48.176;16.338;2023-09-19T14:56:29;99079.13;;;24.66;40.74
66762;BME280;53672;48.176;16.338;2023-09-19T15:01:30;99089.59;;;24.45;40.76
66762;BME280;53672;48.176;16.338;2023-09-19T15:06:33;99086.25;;;24.28;41.56
66762;BME280;53672;48.176;16.338;2023-09-19T15:11:34;99085.19;;;24.14;42.92
66762;BME280;53672;48.176;16.338;2023-09-19T15:16:34;99091.97;;;23.98;42.86
66762;BME280;53672;48.176;16.338;2023-09-19T15:21:36;99098.13;;;23.90;43.37
66762;BME280;53672;48.176;16.338;2023-09-19T15:26:37;99097.56;;;23.73;43.56
66762;BME280;53672;48.176;16.338;2023-09-19T15:31:38;99101.50;;;23.57;43.96
66762;BME280;53672;48.176;16.338;2023-09-19T15:36:40;99099.53;;;23.42;44.04
66762;BME280;53672;48.176;16.338;2023-09-19T15:41:45;99105.97;;;23.32;44.38
66762;BME280;53672;48.176;16.338;2023-09-19T15:46:46;99102.88;;;23.24;44.53
66762;BME280;53672;48.176;16.338;2023-09-19T15:51:49;99108.72;;;23.07;45.01
66762;BME280;53672;48.176;16.338;2023-09-19T15:56:50;99109.22;;;22.89;45.49
66762;BME280;53672;48.176;16.338;2023-09-19T16:01:51;99110.56;;;22.71;45.81
66762;BME280;53672;48.176;16.338;2023-09-19T16:06:53;99115.25;;;22.61;46.30
66762;BME280;53672;48.176;16.338;2023-09-19T16:11:54;99112.94;;;22.43;46.74
66762;BME280;53672;48.176;16.338;2023-09-19T16:16:55;99117.91;;;22.31;46.46
66762;BME280;53672;48.176;16.338;2023-09-19T16:21:57;99116.69;;;22.11;49.49
66762;BME280;53672;48.176;16.338;2023-09-19T16:26:58;99113.19;;;21.94;47.01
66762;BME280;53672;48.176;16.338;2023-09-19T16:31:59;99113.09;;;21.79;47.28
66762;BME280;53672;48.176;16.338;2023-09-19T16:37:02;99121.91;;;21.61;48.37
66762;BME280;53672;48.176;16.338;2023-09-19T16:42:04;99121.72;;;21.41;49.16
66762;BME280;53672;48.176;16.338;2023-09-19T16:47:05;99122.91;;;21.23;50.02
66762;BME280;53672;48.176;16.338;2023-09-19T16:52:07;99124.22;;;21.11;50.80
66762;BME280;53672;48.176;16.338;2023-09-19T16:57:08;99123.22;;;20.95;51.32
66762;BME280;53672;48.176;16.338;2023-09-19T17:02:09;99129.16;;;20.82;52.11
66762;BME280;53672;48.176;16.338;2023-09-19T17:07:12;99139.06;;;20.68;53.28
66762;BME280;53672;48.176;16.338;2023-09-19T17:12:14;99138.06;;;20.57;53.72
66762;BME280;53672;48.176;16.338;2023-09-19T17:17:15;99153.13;;;20.56;54.02
66762;BME280;53672;48.176;16.338;2023-09-19T17:22:19;99159.06;;;20.43;54.59
66762;BME280;53672;48.176;16.338;2023-09-19T17:27:21;99153.69;;;20.37;54.52
66762;BME280;53672;48.176;16.338;2023-09-19T17:32:22;99158.88;;;20.28;54.74
66762;BME280;53672;48.176;16.338;2023-09-19T17:37:26;99158.78;;;20.23;54.68
66762;BME280;53672;48.176;16.338;2023-09-19T17:42:27;99155.94;;;20.18;55.17
66762;BME280;53672;48.176;16.338;2023-09-19T17:47:28;99160.84;;;20.11;55.28
66762;BME280;53672;48.176;16.338;2023-09-19T17:52:31;99167.19;;;20.06;55.13
66762;BME280;53672;48.176;16.338;2023-09-19T17:57:33;99175.38;;;19.96;55.35
66762;BME280;53672;48.176;16.338;2023-09-19T18:02:35;99179.09;;;19.85;55.49
66762;BME280;53672;48.176;16.338;2023-09-19T18:07:39;99194.88;;;19.80;55.72
66762;BME280;53672;48.176;16.338;2023-09-19T18:12:43;99198.69;;;19.74;55.87
66762;BME280;53672;48.176;16.338;2023-09-19T18:17:44;99199.28;;;19.76;55.87
66762;BME280;53672;48.176;16.338;2023-09-19T18:22:47;99206.47;;;19.72;55.42
66762;BME280;53672;48.176;16.338;2023-09-19T18:27:48;99207.72;;;19.64;56.03
66762;BME280;53672;48.176;16.338;2023-09-19T18:32:50;99218.25;;;19.62;56.47
66762;BME280;53672;48.176;16.338;2023-09-19T18:37:53;99216.22;;;19.58;56.59
66762;BME280;53672;48.176;16.338;2023-09-19T18:42:55;99227.75;;;19.50;56.13
66762;BME280;53672;48.176;16.338;2023-09-19T18:47:56;99237.13;;;19.44;56.48
66762;BME280;53672;48.176;16.338;2023-09-19T18:53:01;99238.38;;;19.36;56.10
66762;BME280;53672;48.176;16.338;2023-09-19T18:58:02;99241.56;;;19.28;56.37
66762;BME280;53672;48.176;16.338;2023-09-19T19:03:05;99242.38;;;19.28;56.59
66762;BME280;53672;48.176;16.338;2023-09-19T19:08:07;99243.25;;;19.17;56.84
66762;BME280;53672;48.176;16.338;2023-09-19T19:13:10;99242.06;;;19.13;56.79
66762;BME280;53672;48.176;16.338;2023-09-19T19:18:11;99252.00;;;19.09;56.60
66762;BME280;53672;48.176;16.338;2023-09-19T19:23:14;99249.28;;;18.98;56.91
66762;BME280;53672;48.176;16.338;2023-09-19T19:28:15;99252.56;;;18.83;57.47
66762;BME280;53672;48.176;16.338;2023-09-19T19:33:17;99250.66;;;18.72;57.85
66762;BME280;53672;48.176;16.338;2023-09-19T19:38:20;99248.63;;;18.56;58.09
66762;BME280;53672;48.176;16.338;2023-09-19T19:43:21;99253.13;;;18.45;58.57
66762;BME280;53672;48.176;16.338;2023-09-19T19:48:22;99265.06;;;18.34;58.80
66762;BME280;53672;48.176;16.338;2023-09-19T19:53:26;99261.22;;;18.35;58.73
66762;BME280;53672;48.176;16.338;2023-09-19T19:58:30;99262.78;;;18.31;58.71
66762;BME280;53672;48.176;16.338;2023-09-19T20:03:33;99258.06;;;18.32;58.58
66762;BME280;53672;48.176;16.338;2023-09-19T20:08:35;99264.69;;;18.31;58.34
66762;BME280;53672;48.176;16.338;2023-09-19T20:13:36;99263.50;;;18.27;58.20
66762;BME280;53672;48.176;16.338;2023-09-19T20:18:37;99263.13;;;18.23;58.37
66762;BME280;53672;48.176;16.338;2023-09-19T20:23:41;99262.16;;;18.18;58.98
66762;BME280;53672;48.176;16.338;2023-09-19T20:28:43;99271.84;;;18.15;59.14
66762;BME280;53672;48.176;16.338;2023-09-19T20:33:43;99263.84;;;18.07;59.84
66762;BME280;53672;48.176;16.338;2023-09-19T20:38:46;99280.16;;;18.03;60.07
66762;BME280;53672;48.176;16.338;2023-09-19T20:43:48;99282.69;;;18.17;61.01
66762;BME280;53672;48.176;16.338;2023-09-19T20:48:49;99284.59;;;18.04;60.82
66762;BME280;53672;48.176;16.338;2023-09-19T20:53:52;99281.91;;;17.86;61.46
66762;BME280;53672;48.176;16.338;2023-09-19T20:58:53;99292.19;;;17.74;62.08
66762;BME280;53672;48.176;16.338;2023-09-19T21:03:53;99287.78;;;17.55;63.57
66762;BME280;53672;48.176;16.338;2023-09-19T21:08:55;99291.09;;;17.46;64.10
66762;BME280;53672;48.176;16.338;2023-09-19T21:13:56;99292.94;;;17.33;64.04
66762;BME280;53672;48.176;16.338;2023-09-19T21:18:56;99292.69;;;17.23;64.68
66762;BME280;53672;48.176;16.338;2023-09-19T21:23:58;99301.19;;;17.10;65.05
66762;BME280;53672;48.176;16.338;2023-09-19T21:28:58;99301.41;;;17.09;64.95
66762;BME280;53672;48.176;16.338;2023-09-19T21:33:59;99304.28;;;17.02;65.12
66762;BME280;53672;48.176;16.338;2023-09-19T21:39:01;99301.59;;;16.96;65.31
66762;BME280;53672;48.176;16.338;2023-09-19T21:44:02;99306.97;;;16.91;65.77
66762;BME280;53672;48.176;16.338;2023-09-19T21:49:03;99302.81;;;16.82;66.03
66762;BME280;53672;48.176;16.338;2023-09-19T21:54:05;99300.28;;;16.80;65.67
66762;BME280;53672;48.176;16.338;2023-09-19T21:59:05;99303.66;;;16.82;65.49
66762;BME280;53672;48.176;16.338;2023-09-19T22:04:06;99309.22;;;16.82;65.34
66762;BME280;53672;48.176;16.338;2023-09-19T22:09:08;99309.66;;;16.79;65.36
66762;BME280;53672;48.176;16.338;2023-09-19T22:14:08;99311.47;;;16.74;65.55
66762;BME280;53672;48.176;16.338;2023-09-19T22:19:09;99305.13;;;16.67;66.16
66762;BME280;53672;48.176;16.338;2023-09-19T22:24:10;99303.75;;;16.57;66.72
66762;BME280;53672;48.176;16.338;2023-09-19T22:29:11;99302.09;;;16.50;66.86
66762;BME280;53672;48.176;16.338;2023-09-19T22:34:11;99306.84;;;16.43;67.46
66762;BME280;53672;48.176;16.338;2023-09-19T22:39:14;99308.38;;;16.39;68.49
66762;BME280;53672;48.176;16.338;2023-09-19T22:44:14;99302.91;;;16.32;67.98
66762;BME280;53672;48.176;16.338;2023-09-19T22:49:14;99289.34;;;16.24;68.07
66762;BME280;53672;48.176;16.338;2023-09-19T22:54:17;99300.72;;;16.16;68.82
66762;BME280;53672;48.176;16.338;2023-09-19T22:59:17;99293.78;;;16.07;69.11
66762;BME280;53672;48.176;16.338;2023-09-19T23:04:18;99290.44;;;15.99;69.79
66762;BME280;53672;48.176;16.338;2023-09-19T23:09:20;99298.16;;;15.90;69.71
66762;BME280;53672;48.176;16.338;2023-09-19T23:14:21;99303.53;;;15.85;69.95
66762;BME280;53672;48.176;16.338;2023-09-19T23:19:22;99297.78;;;15.86;69.71
66762;BME280;53672;48.176;16.338;2023-09-19T23:24:24;99308.44;;;15.83;70.06
66762;BME280;53672;48.176;16.338;2023-09-19T23:29:24;99309.34;;;15.77;70.26
66762;BME280;53672;48.176;16.338;2023-09-19T23:34:25;99315.75;;;15.77;70.50
66762;BME280;53672;48.176;16.338;2023-09-19T23:39:26;99314.47;;;15.73;70.59
66762;BME280;53672;48.176;16.338;2023-09-19T23:44:27;99322.41;;;15.70;70.57
66762;BME280;53672;48.176;16.338;2023-09-19T23:49:27;99316.25;;;15.68;70.80
66762;BME280;53672;48.176;16.338;2023-09-19T23:54:29;99326.50;;;15.61;71.03
66762;BME280;53672;48.176;16.338;2023-09-19T23:59:29;99319.88;;;15.62;71.14
